createdAt,value
2019-01-23T00:00:25.546Z,95.00
2019-01-23T00:01:25.539Z,91.70
2019-01-23T00:02:25.537Z,96.50
2019-01-23T00:03:25.521Z,93.00
2019-01-23T00:04:25.528Z,96.50
2019-01-23T00:05:25.496Z,95.00
2019-01-23T00:06:25.484Z,96.10
2019-01-23T00:07:25.477Z,101.60
2019-01-23T00:08:25.494Z,92.40
2019-01-23T00:09:25.459Z,94.40
2019-01-23T00:10:25.449Z,94.50
2019-01-23T00:11:25.430Z,87.00
2019-01-23T00:12:25.420Z,94.20
2019-01-23T00:13:25.411Z,91.10
2019-01-23T00:14:25.398Z,93.90
2019-01-23T00:15:25.388Z,94.40
2019-01-23T00:16:25.388Z,97.80
2019-01-23T00:17:25.368Z,97.90
2019-01-23T00:18:25.358Z,92.70
2019-01-23T00:19:25.347Z,99.20
2019-01-23T00:20:25.334Z,94.30
2019-01-23T00:21:25.331Z,96.00
2019-01-23T00:22:25.322Z,94.10
2019-01-23T00:23:25.302Z,95.50
2019-01-23T00:24:25.297Z,98.60
2019-01-23T00:25:25.284Z,89.00
2019-01-23T00:26:25.276Z,88.90
2019-01-23T00:27:25.269Z,97.20
2019-01-23T00:28:25.250Z,96.20
2019-01-23T00:29:25.238Z,95.70
2019-01-23T00:30:25.229Z,93.10
2019-01-23T00:31:25.222Z,87.50
2019-01-23T00:32:25.212Z,96.90
2019-01-23T00:33:25.201Z,91.30
2019-01-23T00:34:25.188Z,96.10
2019-01-23T00:35:25.174Z,99.20
2019-01-23T00:36:25.164Z,89.30
2019-01-23T00:37:25.161Z,88.10
2019-01-23T00:38:25.144Z,86.20
2019-01-23T00:39:25.197Z,92.00
2019-01-23T00:40:25.127Z,90.10
2019-01-23T00:41:25.111Z,95.00
2019-01-23T00:42:25.102Z,89.50
2019-01-23T00:43:25.097Z,93.00
2019-01-23T00:44:25.084Z,95.50
2019-01-23T00:45:25.077Z,94.30
2019-01-23T00:46:25.059Z,92.20
2019-01-23T00:47:25.048Z,89.40
2019-01-23T00:48:25.038Z,91.90
2019-01-23T00:49:25.032Z,89.40
2019-01-23T00:50:25.019Z,92.60
2019-01-23T00:51:25.040Z,89.10
2019-01-23T00:52:24.995Z,89.80
2019-01-23T00:53:24.988Z,95.80
2019-01-23T00:54:24.974Z,94.00
2019-01-23T00:55:24.970Z,95.60
2019-01-23T00:56:24.953Z,100.20
2019-01-23T00:57:24.951Z,97.70
2019-01-23T00:58:24.933Z,92.90
2019-01-23T00:59:24.923Z,96.50
2019-01-23T01:00:24.913Z,89.90
2019-01-23T01:01:24.904Z,95.60
2019-01-23T01:02:24.920Z,94.60
2019-01-23T01:03:24.888Z,96.20
2019-01-23T01:04:24.869Z,88.00
2019-01-23T01:05:24.858Z,91.70
2019-01-23T01:06:24.852Z,92.70
2019-01-23T01:07:24.854Z,90.00
2019-01-23T01:08:24.829Z,92.80
2019-01-23T01:09:24.824Z,90.50
2019-01-23T01:10:24.813Z,90.60
2019-01-23T01:11:24.796Z,87.90
2019-01-23T01:12:24.784Z,95.70
2019-01-23T01:13:24.775Z,103.50
2019-01-23T01:14:24.765Z,89.30
2019-01-23T01:15:24.761Z,93.80
2019-01-23T01:16:24.743Z,98.70
2019-01-23T01:17:24.731Z,92.20
2019-01-23T01:18:24.723Z,97.50
2019-01-23T01:19:24.713Z,90.00
2019-01-23T01:20:24.702Z,93.90
2019-01-23T01:21:24.689Z,90.60
2019-01-23T01:22:24.679Z,96.10
2019-01-23T01:23:24.668Z,91.50
2019-01-23T01:24:24.657Z,91.20
2019-01-23T01:25:24.646Z,91.30
2019-01-23T01:26:24.641Z,93.60
2019-01-23T01:27:24.640Z,93.30
2019-01-23T01:28:24.614Z,94.70
2019-01-23T01:29:24.604Z,94.20
2019-01-23T01:30:24.592Z,93.00
2019-01-23T01:31:24.584Z,91.30
2019-01-23T01:32:24.590Z,89.70
2019-01-23T01:33:24.568Z,88.90
2019-01-23T01:34:24.552Z,91.80
2019-01-23T01:35:24.540Z,101.40
2019-01-23T01:36:24.530Z,97.20
2019-01-23T01:37:24.522Z,93.50
2019-01-23T01:38:24.513Z,96.20
2019-01-23T01:39:24.502Z,97.90
2019-01-23T01:40:24.494Z,98.40
2019-01-23T01:41:24.480Z,107.10
2019-01-23T01:42:24.467Z,93.00
2019-01-23T01:43:24.458Z,100.50
2019-01-23T01:44:24.448Z,99.00
2019-01-23T01:45:24.440Z,97.60
2019-01-23T01:46:24.424Z,92.40
2019-01-23T01:47:24.413Z,93.70
2019-01-23T01:48:24.403Z,98.40
2019-01-23T01:49:24.396Z,102.10
2019-01-23T01:50:24.384Z,98.60
2019-01-23T01:51:24.377Z,98.20
2019-01-23T01:52:24.361Z,99.40
2019-01-23T01:53:24.352Z,98.00
2019-01-23T01:54:24.344Z,103.50
2019-01-23T01:55:24.333Z,96.80
2019-01-23T01:56:24.322Z,97.00
2019-01-23T01:57:24.315Z,100.00
2019-01-23T01:58:24.301Z,98.20
2019-01-23T01:59:24.287Z,97.00
2019-01-23T02:00:24.283Z,105.20
2019-01-23T02:01:24.276Z,100.10
2019-01-23T02:02:24.261Z,102.30
2019-01-23T02:03:24.252Z,107.20
2019-01-23T02:04:24.234Z,114.30
2019-01-23T02:05:24.224Z,112.90
2019-01-23T02:06:24.213Z,102.30
2019-01-23T02:07:24.205Z,98.50
2019-01-23T02:08:24.192Z,103.20
2019-01-23T02:09:24.188Z,105.50
2019-01-23T02:10:24.170Z,98.60
2019-01-23T02:11:24.165Z,100.60
2019-01-23T02:12:24.152Z,97.00
2019-01-23T02:13:24.140Z,112.70
2019-01-23T02:14:24.141Z,108.70
2019-01-23T02:15:24.122Z,103.60
2019-01-23T02:16:24.109Z,100.20
2019-01-23T02:17:24.097Z,106.90
2019-01-23T02:18:24.089Z,115.10
2019-01-23T02:19:24.076Z,105.20
2019-01-23T02:20:24.073Z,95.60
2019-01-23T02:21:24.055Z,108.80
2019-01-23T02:22:24.044Z,102.80
2019-01-23T02:23:24.033Z,101.00
2019-01-23T02:24:24.030Z,95.40
2019-01-23T02:25:24.012Z,99.60
2019-01-23T02:26:24.008Z,109.30
2019-01-23T02:27:23.997Z,109.70
2019-01-23T02:28:23.981Z,110.90
2019-01-23T02:29:23.972Z,111.00
2019-01-23T02:30:23.965Z,108.10
2019-01-23T02:31:23.949Z,98.70
2019-01-23T02:32:23.948Z,106.20
2019-01-23T02:33:23.936Z,112.80
2019-01-23T02:34:23.924Z,110.00
2019-01-23T02:35:23.914Z,104.70
2019-01-23T02:36:23.902Z,101.50
2019-01-23T02:37:23.913Z,102.30
2019-01-23T02:38:23.874Z,107.00
2019-01-23T02:39:23.865Z,108.40
2019-01-23T02:40:23.889Z,106.80
2019-01-23T02:41:23.845Z,107.00
2019-01-23T02:42:23.836Z,108.30
2019-01-23T02:43:23.826Z,110.70
2019-01-23T02:44:23.813Z,103.60
2019-01-23T02:45:23.806Z,111.20
2019-01-23T02:46:23.799Z,107.10
2019-01-23T02:47:23.781Z,104.70
2019-01-23T02:48:23.771Z,104.00
2019-01-23T02:49:23.758Z,101.50
2019-01-23T02:50:23.758Z,115.00
2019-01-23T02:51:23.740Z,112.50
2019-01-23T02:52:23.727Z,110.60
2019-01-23T02:53:23.716Z,108.40
2019-01-23T02:54:23.710Z,123.20
2019-01-23T02:55:23.700Z,112.20
2019-01-23T02:56:23.684Z,99.40
2019-01-23T02:57:23.675Z,114.70
2019-01-23T02:58:23.664Z,113.40
2019-01-23T02:59:23.654Z,118.90
2019-01-23T03:00:23.645Z,114.30
2019-01-23T03:01:23.633Z,114.40
2019-01-23T03:02:23.625Z,115.30
2019-01-23T03:03:23.617Z,110.10
2019-01-23T03:04:23.602Z,111.30
2019-01-23T03:05:23.592Z,118.20
2019-01-23T03:06:23.581Z,112.40
2019-01-23T03:07:23.568Z,107.90
2019-01-23T03:08:23.558Z,115.90
2019-01-23T03:09:23.548Z,115.10
2019-01-23T03:10:23.537Z,117.80
2019-01-23T03:11:23.529Z,110.10
2019-01-23T03:12:23.518Z,110.20
2019-01-23T03:13:23.507Z,119.70
2019-01-23T03:14:23.496Z,111.80
2019-01-23T03:15:23.486Z,111.70
2019-01-23T03:16:23.476Z,111.30
2019-01-23T03:17:23.464Z,116.70
2019-01-23T03:18:23.459Z,111.90
2019-01-23T03:19:23.447Z,118.60
2019-01-23T03:20:23.432Z,116.10
2019-01-23T03:21:23.423Z,116.60
2019-01-23T03:22:23.410Z,115.40
2019-01-23T03:23:23.412Z,112.00
2019-01-23T03:24:23.391Z,110.40
2019-01-23T03:25:23.379Z,117.90
2019-01-23T03:26:23.371Z,108.50
2019-01-23T03:27:23.357Z,117.60
2019-01-23T03:28:23.348Z,117.90
2019-01-23T03:29:24.684Z,126.70
2019-01-23T03:30:23.330Z,116.40
2019-01-23T03:31:23.318Z,117.80
2019-01-23T03:32:23.314Z,116.30
2019-01-23T03:33:23.302Z,119.00
2019-01-23T03:34:23.284Z,117.60
2019-01-23T03:35:23.274Z,111.20
2019-01-23T03:36:23.261Z,111.90
2019-01-23T03:37:23.255Z,119.80
2019-01-23T03:38:23.242Z,112.60
2019-01-23T03:39:23.232Z,111.60
2019-01-23T03:40:23.221Z,117.40
2019-01-23T03:41:23.209Z,120.90
2019-01-23T03:42:23.211Z,112.70
2019-01-23T03:43:23.194Z,119.50
2019-01-23T03:44:23.187Z,123.40
2019-01-23T03:45:23.166Z,118.00
2019-01-23T03:46:23.158Z,128.30
2019-01-23T03:47:23.151Z,118.60
2019-01-23T03:48:23.153Z,115.30
2019-01-23T03:49:23.124Z,115.90
2019-01-23T03:50:23.114Z,121.10
2019-01-23T03:51:23.103Z,122.10
2019-01-23T03:52:23.098Z,125.00
2019-01-23T03:53:23.080Z,121.70
2019-01-23T03:54:23.076Z,120.40
2019-01-23T03:55:23.076Z,124.00
2019-01-23T03:56:23.055Z,125.80
2019-01-23T03:57:23.038Z,125.10
2019-01-23T03:58:23.028Z,135.60
2019-01-23T03:59:23.017Z,124.90
2019-01-23T04:00:23.006Z,125.80
2019-01-23T04:01:23.012Z,127.00
2019-01-23T04:02:23.015Z,118.40
2019-01-23T04:03:22.976Z,128.80
2019-01-23T04:04:22.963Z,129.50
2019-01-23T04:05:22.972Z,122.20
2019-01-23T04:06:22.944Z,125.90
2019-01-23T04:07:22.931Z,122.90
2019-01-23T04:08:22.931Z,125.90
2019-01-23T04:09:22.912Z,120.40
2019-01-23T04:10:22.903Z,136.20
2019-01-23T04:11:22.890Z,114.00
2019-01-23T04:12:22.878Z,123.00
2019-01-23T04:13:22.868Z,124.20
2019-01-23T04:14:22.858Z,125.60
2019-01-23T04:15:22.848Z,117.80
2019-01-23T04:16:22.835Z,116.50
2019-01-23T04:17:22.826Z,122.60
2019-01-23T04:18:22.819Z,119.50
2019-01-23T04:19:22.806Z,123.10
2019-01-23T04:20:22.797Z,125.80
2019-01-23T04:21:22.786Z,127.60
2019-01-23T04:22:22.772Z,131.50
2019-01-23T04:23:22.766Z,121.50
2019-01-23T04:24:22.754Z,129.30
2019-01-23T04:25:22.739Z,116.80
2019-01-23T04:26:22.729Z,124.60
2019-01-23T04:27:22.721Z,119.10
2019-01-23T04:28:22.710Z,111.50
2019-01-23T04:29:22.698Z,128.30
2019-01-23T04:30:22.693Z,128.40
2019-01-23T04:31:22.677Z,116.90
2019-01-23T04:32:22.667Z,122.40
2019-01-23T04:33:22.655Z,116.60
2019-01-23T04:34:22.645Z,122.80
2019-01-23T04:35:22.640Z,121.40
2019-01-23T04:36:22.632Z,118.80
2019-01-23T04:37:22.613Z,119.70
2019-01-23T04:38:22.605Z,119.30
2019-01-23T04:39:22.592Z,119.60
2019-01-23T04:40:22.583Z,122.20
2019-01-23T04:41:22.572Z,112.00
2019-01-23T04:42:22.561Z,128.00
2019-01-23T04:43:22.551Z,113.90
2019-01-23T04:44:22.540Z,115.10
2019-01-23T04:45:22.529Z,121.50
2019-01-23T04:46:22.522Z,121.60
2019-01-23T04:47:22.510Z,123.90
2019-01-23T04:48:22.504Z,119.60
2019-01-23T04:49:22.490Z,121.90
2019-01-23T04:50:22.479Z,117.70
2019-01-23T04:51:22.464Z,118.70
2019-01-23T04:52:22.459Z,119.50
2019-01-23T04:53:22.445Z,122.80
2019-01-23T04:54:22.443Z,120.40
2019-01-23T04:55:22.421Z,119.40
2019-01-23T04:56:22.415Z,129.50
2019-01-23T04:57:22.400Z,116.70
2019-01-23T04:58:22.393Z,119.10
2019-01-23T04:59:22.385Z,122.90
2019-01-23T05:00:22.379Z,131.50
2019-01-23T05:01:22.362Z,131.10
2019-01-23T05:02:22.348Z,126.30
2019-01-23T05:03:22.342Z,123.30
2019-01-23T05:04:22.326Z,132.90
2019-01-23T05:05:22.319Z,129.90
2019-01-23T05:06:22.305Z,112.50
2019-01-23T05:07:22.297Z,125.50
2019-01-23T05:08:22.286Z,123.00
2019-01-23T05:09:22.274Z,123.20
2019-01-23T05:10:22.262Z,122.40
2019-01-23T05:11:22.258Z,121.00
2019-01-23T05:12:22.243Z,124.10
2019-01-23T05:13:22.238Z,124.80
2019-01-23T05:14:22.224Z,123.90
2019-01-23T05:15:22.216Z,116.90
2019-01-23T05:16:22.200Z,118.50
2019-01-23T05:17:22.225Z,119.60
2019-01-23T05:18:22.179Z,132.80
2019-01-23T05:19:22.174Z,123.10
2019-01-23T05:20:22.166Z,125.90
2019-01-23T05:21:22.149Z,118.90
2019-01-23T05:22:22.141Z,120.10
2019-01-23T05:23:22.126Z,122.60
2019-01-23T05:24:22.116Z,118.60
2019-01-23T05:25:22.106Z,128.60
2019-01-23T05:26:22.096Z,124.40
2019-01-23T05:27:22.084Z,127.30
2019-01-23T05:28:22.073Z,123.90
2019-01-23T05:29:22.074Z,109.10
2019-01-23T05:30:22.052Z,119.30
2019-01-23T05:31:22.042Z,123.00
2019-01-23T05:32:22.031Z,122.70
2019-01-23T05:33:22.026Z,120.70
2019-01-23T05:34:22.009Z,121.70
2019-01-23T05:35:22.002Z,119.90
2019-01-23T05:36:21.990Z,123.90
2019-01-23T05:37:22.021Z,123.90
2019-01-23T05:38:21.968Z,125.80
2019-01-23T05:39:21.959Z,137.60
2019-01-23T05:40:21.946Z,127.20
2019-01-23T05:41:21.941Z,128.20
2019-01-23T05:42:21.924Z,135.70
2019-01-23T05:43:21.918Z,127.90
2019-01-23T05:44:21.908Z,131.80
2019-01-23T05:45:21.894Z,122.90
2019-01-23T05:46:21.882Z,125.30
2019-01-23T05:47:21.871Z,125.30
2019-01-23T05:48:21.864Z,126.30
2019-01-23T05:49:21.851Z,131.20
2019-01-23T05:50:21.840Z,121.60
2019-01-23T05:51:21.836Z,133.60
2019-01-23T05:52:21.820Z,129.80
2019-01-23T05:53:21.812Z,126.30
2019-01-23T05:54:21.803Z,124.80
2019-01-23T05:55:21.789Z,126.20
2019-01-23T05:56:21.776Z,129.30
2019-01-23T05:57:21.767Z,123.20
2019-01-23T05:58:21.756Z,139.00
2019-01-23T05:59:21.752Z,132.40
2019-01-23T06:00:21.747Z,123.00
2019-01-23T06:01:21.725Z,127.30
2019-01-23T06:02:21.715Z,133.70
2019-01-23T06:03:21.706Z,127.10
2019-01-23T06:04:21.696Z,133.30
2019-01-23T06:05:21.684Z,131.70
2019-01-23T06:06:21.673Z,128.70
2019-01-23T06:07:21.659Z,132.20
2019-01-23T06:08:21.649Z,129.70
2019-01-23T06:09:22.755Z,131.10
2019-01-23T06:10:21.630Z,140.60
2019-01-23T06:11:21.627Z,137.20
2019-01-23T06:12:21.606Z,142.90
2019-01-23T06:13:21.596Z,137.20
2019-01-23T06:14:21.585Z,129.30
2019-01-23T06:15:21.577Z,132.60
2019-01-23T06:16:21.567Z,133.70
2019-01-23T06:17:21.554Z,135.30
2019-01-23T06:18:21.555Z,140.30
2019-01-23T06:19:21.533Z,128.00
2019-01-23T06:20:21.522Z,140.00
2019-01-23T06:21:21.514Z,136.00
2019-01-23T06:22:21.501Z,135.80
2019-01-23T06:23:21.490Z,135.50
2019-01-23T06:24:21.484Z,132.40
2019-01-23T06:25:21.495Z,141.40
2019-01-23T06:26:21.458Z,133.70
2019-01-23T06:27:21.448Z,135.70
2019-01-23T06:28:21.443Z,139.90
2019-01-23T06:29:21.448Z,138.30
2019-01-23T06:30:21.454Z,135.70
2019-01-23T06:31:21.405Z,147.30
2019-01-23T06:32:21.402Z,139.60
2019-01-23T06:33:21.390Z,146.20
2019-01-23T06:34:21.380Z,149.50
2019-01-23T06:35:21.364Z,149.20
2019-01-23T06:36:21.487Z,151.40
2019-01-23T06:37:21.343Z,163.40
2019-01-23T06:38:21.332Z,149.00
2019-01-23T06:39:21.329Z,155.40
2019-01-23T06:40:21.310Z,150.10
2019-01-23T06:41:21.300Z,154.20
2019-01-23T06:42:21.288Z,155.40
2019-01-23T06:43:21.686Z,156.50
2019-01-23T06:44:21.267Z,147.00
2019-01-23T06:45:21.258Z,159.70
2019-01-23T06:46:21.247Z,158.00
2019-01-23T06:47:21.237Z,158.30
2019-01-23T06:48:21.230Z,163.10
2019-01-23T06:49:21.214Z,164.00
2019-01-23T06:50:21.203Z,155.00
2019-01-23T06:51:21.193Z,160.70
2019-01-23T06:52:21.185Z,164.50
2019-01-23T06:53:21.173Z,159.50
2019-01-23T06:54:21.166Z,158.90
2019-01-23T06:55:21.151Z,169.00
2019-01-23T06:56:21.142Z,161.60
2019-01-23T06:57:21.137Z,161.30
2019-01-23T06:58:21.123Z,168.80
2019-01-23T06:59:21.109Z,158.50
2019-01-23T07:00:21.104Z,164.20
2019-01-23T07:01:21.114Z,165.90
2019-01-23T07:02:21.081Z,165.60
2019-01-23T07:03:21.066Z,170.70
2019-01-23T07:04:21.065Z,180.60
2019-01-23T07:05:21.050Z,180.20
2019-01-23T07:06:21.041Z,168.80
2019-01-23T07:07:21.023Z,175.50
2019-01-23T07:08:21.021Z,174.90
2019-01-23T07:09:21.004Z,172.70
2019-01-23T07:10:20.996Z,174.40
2019-01-23T07:11:20.983Z,174.50
2019-01-23T07:12:20.977Z,185.60
2019-01-23T07:13:20.959Z,176.30
2019-01-23T07:14:20.956Z,183.60
2019-01-23T07:15:20.938Z,179.10
2019-01-23T07:16:20.971Z,183.60
2019-01-23T07:17:20.922Z,178.30
2019-01-23T07:18:20.908Z,179.50
2019-01-23T07:19:20.899Z,185.30
2019-01-23T07:20:20.899Z,188.50
2019-01-23T07:21:20.882Z,189.00
2019-01-23T07:22:20.889Z,182.80
2019-01-23T07:23:20.854Z,178.20
2019-01-23T07:24:20.854Z,199.40
2019-01-23T07:25:20.834Z,190.70
2019-01-23T07:26:20.865Z,201.20
2019-01-23T07:27:20.818Z,195.50
2019-01-23T07:28:20.838Z,191.70
2019-01-23T07:29:20.797Z,184.10
2019-01-23T07:30:24.317Z,188.90
2019-01-23T07:31:20.774Z,194.40
2019-01-23T07:32:20.761Z,196.60
2019-01-23T07:33:20.757Z,203.00
2019-01-23T07:34:20.739Z,198.90
2019-01-23T07:35:20.727Z,200.00
2019-01-23T07:36:20.720Z,199.20
2019-01-23T07:37:20.742Z,201.20
2019-01-23T07:38:20.697Z,208.30
2019-01-23T07:39:20.691Z,208.70
2019-01-23T07:40:20.675Z,202.20
2019-01-23T07:41:20.713Z,202.20
2019-01-23T07:42:20.655Z,203.40
2019-01-23T07:43:20.644Z,207.00
2019-01-23T07:44:20.632Z,210.40
2019-01-23T07:45:20.625Z,204.20
2019-01-23T07:46:20.611Z,210.00
2019-01-23T07:47:20.600Z,210.30
2019-01-23T07:48:20.590Z,210.50
2019-01-23T07:49:20.580Z,204.90
2019-01-23T07:50:20.571Z,220.30
2019-01-23T07:51:20.580Z,207.40
2019-01-23T07:52:20.549Z,204.80
2019-01-23T07:53:20.539Z,206.80
2019-01-23T07:54:20.526Z,209.50
2019-01-23T07:55:20.516Z,200.70
2019-01-23T07:56:20.515Z,208.20
2019-01-23T07:57:20.501Z,213.50
2019-01-23T07:58:20.487Z,203.70
2019-01-23T07:59:20.473Z,206.80
2019-01-23T08:00:20.463Z,209.70
2019-01-23T08:01:20.451Z,214.40
2019-01-23T08:02:20.447Z,218.50
2019-01-23T08:03:20.432Z,222.70
2019-01-23T08:04:20.420Z,220.90
2019-01-23T08:05:20.409Z,225.30
2019-01-23T08:06:20.399Z,216.80
2019-01-23T08:07:20.395Z,216.70
2019-01-23T08:08:20.378Z,223.10
2019-01-23T08:09:20.380Z,220.10
2019-01-23T08:10:20.356Z,230.10
2019-01-23T08:11:20.344Z,225.40
2019-01-23T08:12:20.339Z,220.90
2019-01-23T08:13:20.418Z,219.50
2019-01-23T08:14:20.314Z,228.10
2019-01-23T08:15:20.318Z,219.70
2019-01-23T08:16:20.291Z,220.50
2019-01-23T08:17:20.290Z,222.20
2019-01-23T08:18:20.270Z,220.10
2019-01-23T08:19:20.274Z,209.00
2019-01-23T08:20:20.338Z,218.30
2019-01-23T08:21:20.245Z,225.70
2019-01-23T08:22:20.259Z,223.50
2019-01-23T08:23:20.218Z,220.30
2019-01-23T08:24:20.322Z,222.80
2019-01-23T08:25:20.203Z,233.50
2019-01-23T08:26:20.190Z,231.90
2019-01-23T08:27:20.183Z,223.20
2019-01-23T08:28:20.165Z,222.80
2019-01-23T08:29:20.155Z,231.40
2019-01-23T08:30:20.143Z,219.70
2019-01-23T08:31:20.134Z,241.40
2019-01-23T08:32:20.129Z,231.30
2019-01-23T08:33:20.123Z,225.00
2019-01-23T08:34:20.440Z,221.70
2019-01-23T08:35:20.092Z,232.30
2019-01-23T08:36:20.168Z,233.80
2019-01-23T08:37:20.070Z,224.80
2019-01-23T08:38:20.062Z,224.10
2019-01-23T08:39:20.073Z,225.10
2019-01-23T08:40:20.038Z,234.70
2019-01-23T08:41:20.028Z,240.60
2019-01-23T08:42:20.018Z,232.90
2019-01-23T08:43:20.004Z,231.50
2019-01-23T08:44:19.994Z,247.70
2019-01-23T08:45:19.984Z,247.40
2019-01-23T08:46:19.974Z,239.00
2019-01-23T08:47:19.961Z,249.00
2019-01-23T08:48:19.953Z,243.60
2019-01-23T08:49:19.954Z,254.70
2019-01-23T08:50:19.936Z,247.00
2019-01-23T08:51:19.936Z,254.50
2019-01-23T08:52:19.976Z,248.10
2019-01-23T08:53:19.900Z,255.80
2019-01-23T08:54:19.889Z,256.10
2019-01-23T08:55:19.877Z,260.80
2019-01-23T08:56:19.879Z,256.20
2019-01-23T08:57:19.860Z,256.70
2019-01-23T08:58:19.849Z,269.40
2019-01-23T08:59:19.836Z,255.60
2019-01-23T09:00:19.825Z,271.50
2019-01-23T09:01:19.818Z,256.30
2019-01-23T09:02:19.814Z,264.80
2019-01-23T09:03:19.796Z,256.80
2019-01-23T09:04:19.784Z,262.80
2019-01-23T09:05:19.772Z,258.50
2019-01-23T09:06:19.765Z,257.60
2019-01-23T09:07:19.750Z,270.70
2019-01-23T09:08:19.749Z,263.90
2019-01-23T09:09:19.730Z,267.10
2019-01-23T09:10:19.719Z,266.60
2019-01-23T09:11:19.708Z,259.20
2019-01-23T09:12:19.702Z,274.60
2019-01-23T09:13:19.689Z,264.50
2019-01-23T09:14:19.679Z,263.20
2019-01-23T09:15:19.673Z,274.60
2019-01-23T09:16:19.654Z,269.10
2019-01-23T09:17:19.644Z,260.80
2019-01-23T09:18:19.640Z,255.90
2019-01-23T09:19:19.624Z,267.30
2019-01-23T09:20:19.621Z,263.00
2019-01-23T09:21:19.608Z,271.80
2019-01-23T09:22:19.591Z,270.60
2019-01-23T09:23:19.584Z,269.50
2019-01-23T09:24:19.577Z,265.80
2019-01-23T09:25:19.560Z,286.60
2019-01-23T09:26:19.561Z,269.80
2019-01-23T09:27:19.543Z,276.80
2019-01-23T09:28:19.528Z,266.90
2019-01-23T09:29:19.518Z,269.90
2019-01-23T09:30:19.512Z,267.50
2019-01-23T09:31:19.501Z,267.40
2019-01-23T09:32:19.499Z,264.10
2019-01-23T09:33:19.475Z,267.30
2019-01-23T09:34:19.464Z,267.10
2019-01-23T09:35:19.455Z,280.10
2019-01-23T09:36:19.442Z,267.20
2019-01-23T09:37:19.442Z,268.20
2019-01-23T09:38:19.432Z,265.40
2019-01-23T09:39:19.441Z,272.30
2019-01-23T09:40:19.400Z,263.50
2019-01-23T09:41:19.393Z,279.90
2019-01-23T09:42:19.380Z,265.40
2019-01-23T09:43:19.372Z,270.90
2019-01-23T09:44:19.374Z,274.20
2019-01-23T09:45:19.350Z,285.80
2019-01-23T09:46:19.341Z,269.00
2019-01-23T09:47:19.328Z,279.20
2019-01-23T09:48:19.317Z,276.80
2019-01-23T09:49:19.447Z,283.20
2019-01-23T09:50:19.294Z,268.30
2019-01-23T09:51:19.297Z,276.80
2019-01-23T09:52:19.276Z,274.90
2019-01-23T09:53:19.262Z,271.10
2019-01-23T09:54:19.251Z,269.70
2019-01-23T09:55:19.251Z,274.20
2019-01-23T09:56:19.241Z,273.20
2019-01-23T09:57:19.221Z,279.20
2019-01-23T09:58:19.261Z,265.10
2019-01-23T09:59:19.199Z,264.30
2019-01-23T10:00:19.190Z,274.30
2019-01-23T10:01:19.195Z,279.40
2019-01-23T10:02:19.183Z,276.10
2019-01-23T10:03:22.936Z,273.60
2019-01-23T10:04:19.146Z,268.90
2019-01-23T10:05:19.140Z,275.80
2019-01-23T10:06:19.125Z,256.00
2019-01-23T10:07:19.115Z,261.90
2019-01-23T10:08:19.155Z,268.10
2019-01-23T10:09:19.093Z,266.40
2019-01-23T10:10:19.084Z,263.30
2019-01-23T10:11:19.073Z,260.30
2019-01-23T10:12:19.065Z,262.40
2019-01-23T10:13:19.057Z,270.30
2019-01-23T10:14:19.082Z,251.60
2019-01-23T10:15:19.032Z,265.10
2019-01-23T10:16:19.021Z,269.20
2019-01-23T10:17:19.010Z,260.70
2019-01-23T10:18:19.000Z,258.90
2019-01-23T10:19:18.991Z,259.90
2019-01-23T10:20:18.999Z,251.70
2019-01-23T10:21:18.967Z,255.20
2019-01-23T10:22:18.954Z,246.10
2019-01-23T10:23:18.954Z,260.50
2019-01-23T10:24:18.955Z,246.30
2019-01-23T10:25:18.942Z,250.50
2019-01-23T10:26:18.915Z,249.40
2019-01-23T10:27:18.901Z,258.30
2019-01-23T10:28:18.897Z,254.50
2019-01-23T10:29:18.885Z,250.30
2019-01-23T10:30:18.885Z,246.40
2019-01-23T10:31:18.866Z,257.50
2019-01-23T10:32:18.853Z,247.90
2019-01-23T10:33:18.886Z,252.10
2019-01-23T10:34:18.828Z,250.00
2019-01-23T10:35:18.819Z,260.10
2019-01-23T10:36:18.808Z,251.50
2019-01-23T10:37:19.629Z,258.50
2019-01-23T10:38:18.786Z,247.40
2019-01-23T10:39:18.785Z,263.40
2019-01-23T10:40:18.782Z,261.00
2019-01-23T10:41:18.793Z,241.20
2019-01-23T10:42:18.744Z,240.70
2019-01-23T10:43:18.739Z,254.40
2019-01-23T10:44:18.723Z,233.80
2019-01-23T10:45:18.712Z,250.00
2019-01-23T10:46:18.703Z,247.00
2019-01-23T10:47:18.696Z,236.90
2019-01-23T10:48:18.683Z,238.70
2019-01-23T10:49:18.695Z,240.00
2019-01-23T10:50:18.660Z,235.40
2019-01-23T10:51:18.849Z,246.40
2019-01-23T10:52:18.639Z,249.40
2019-01-23T10:53:18.628Z,238.80
2019-01-23T10:54:18.623Z,232.50
2019-01-23T10:55:18.627Z,237.10
2019-01-23T10:56:18.599Z,248.00
2019-01-23T10:57:18.586Z,234.80
2019-01-23T10:58:18.575Z,241.40
2019-01-23T10:59:18.575Z,234.70
2019-01-23T11:00:18.556Z,233.30
2019-01-23T11:01:18.565Z,238.50
2019-01-23T11:02:18.542Z,240.30
2019-01-23T11:03:18.522Z,230.10
2019-01-23T11:04:18.512Z,243.10
2019-01-23T11:05:18.504Z,240.20
2019-01-23T11:06:18.498Z,236.50
2019-01-23T11:07:18.493Z,229.20
2019-01-23T11:08:18.470Z,230.20
2019-01-23T11:09:18.512Z,236.20
2019-01-23T11:10:18.453Z,242.10
2019-01-23T11:11:18.441Z,238.10
2019-01-23T11:12:18.443Z,229.00
2019-01-23T11:13:18.422Z,241.50
2019-01-23T11:14:18.408Z,224.80
2019-01-23T11:15:18.398Z,229.10
2019-01-23T11:16:18.390Z,238.50
2019-01-23T11:17:18.379Z,224.90
2019-01-23T11:18:18.374Z,232.00
2019-01-23T11:19:18.355Z,230.30
2019-01-23T11:20:18.343Z,238.40
2019-01-23T11:21:18.334Z,231.20
2019-01-23T11:22:18.327Z,240.70
2019-01-23T11:23:18.311Z,231.50
2019-01-23T11:24:18.313Z,238.10
2019-01-23T11:25:18.295Z,234.60
2019-01-23T11:26:19.204Z,245.70
2019-01-23T11:27:18.275Z,243.50
2019-01-23T11:28:18.316Z,231.60
2019-01-23T11:29:18.250Z,233.40
2019-01-23T11:30:18.250Z,242.50
2019-01-23T11:31:20.439Z,240.10
2019-01-23T11:32:18.216Z,234.60
2019-01-23T11:33:18.206Z,238.10
2019-01-23T11:34:18.215Z,239.00
2019-01-23T11:35:18.193Z,233.00
2019-01-23T11:36:18.223Z,228.20
2019-01-23T11:37:18.168Z,239.80
2019-01-23T11:38:18.152Z,237.80
2019-01-23T11:39:18.144Z,244.20
2019-01-23T11:40:18.133Z,235.10
2019-01-23T11:41:18.124Z,238.70
2019-01-23T11:42:18.122Z,242.50
2019-01-23T11:43:18.105Z,236.80
2019-01-23T11:44:18.088Z,234.40
2019-01-23T11:45:18.085Z,248.20
2019-01-23T11:46:18.067Z,228.90
2019-01-23T11:47:18.065Z,239.30
2019-01-23T11:48:18.057Z,242.30
2019-01-23T11:49:18.036Z,238.00
2019-01-23T11:50:22.837Z,235.50
2019-01-23T11:51:19.018Z,235.00
2019-01-23T11:52:18.007Z,239.40
2019-01-23T11:53:17.998Z,252.00
2019-01-23T11:54:17.989Z,234.20
2019-01-23T11:55:17.972Z,234.30
2019-01-23T11:56:17.965Z,235.20
2019-01-23T11:57:17.954Z,227.90
2019-01-23T11:58:17.972Z,223.20
2019-01-23T11:59:17.934Z,222.80
2019-01-23T12:00:17.927Z,216.40
2019-01-23T12:01:17.942Z,225.00
2019-01-23T12:02:17.901Z,226.00
2019-01-23T12:03:20.970Z,227.10
2019-01-23T12:04:17.890Z,226.20
2019-01-23T12:05:17.872Z,222.70
2019-01-23T12:06:17.863Z,224.80
2019-01-23T12:07:17.849Z,218.60
2019-01-23T12:08:17.839Z,226.90
2019-01-23T12:09:17.833Z,225.10
2019-01-23T12:10:17.821Z,211.80
2019-01-23T12:11:17.813Z,230.40
2019-01-23T12:12:17.799Z,225.40
2019-01-23T12:13:17.788Z,230.40
2019-01-23T12:14:17.773Z,228.50
2019-01-23T12:15:17.770Z,215.20
2019-01-23T12:16:17.751Z,223.50
2019-01-23T12:17:17.753Z,219.90
2019-01-23T12:18:17.730Z,224.70
2019-01-23T12:19:17.719Z,217.40
2019-01-23T12:20:17.710Z,212.20
2019-01-23T12:21:17.703Z,212.00
2019-01-23T12:22:17.687Z,216.70
2019-01-23T12:23:17.675Z,213.40
2019-01-23T12:24:17.664Z,210.40
2019-01-23T12:25:17.656Z,208.80
2019-01-23T12:26:17.643Z,212.20
2019-01-23T12:27:17.634Z,197.80
2019-01-23T12:28:17.630Z,200.80
2019-01-23T12:29:17.612Z,204.00
2019-01-23T12:30:17.601Z,188.30
2019-01-23T12:31:17.593Z,204.70
2019-01-23T12:32:17.580Z,199.00